createdAt,value
2018-03-06T00:00:54.098Z,88.1
2018-03-06T00:01:54.756Z,88.4
2018-03-06T00:02:55.414Z,88.3
2018-03-06T00:03:56.076Z,88.7
2018-03-06T00:04:56.771Z,88.6
2018-03-06T00:05:57.430Z,88.5
2018-03-06T00:06:58.088Z,88.6
2018-03-06T00:07:58.746Z,88.3
2018-03-06T00:08:59.445Z,88.1
2018-03-06T00:10:00.106Z,88.1
2018-03-06T00:11:00.762Z,87.8
2018-03-06T00:12:01.420Z,87.7
2018-03-06T00:13:02.078Z,88.4
2018-03-06T00:14:02.735Z,88.3
2018-03-06T00:15:03.393Z,88.4
2018-03-06T00:16:04.052Z,87.9
2018-03-06T00:17:04.797Z,88.1
2018-03-06T00:18:05.455Z,88.2
2018-03-06T00:19:06.114Z,88.2
2018-03-06T00:20:06.773Z,88.4
2018-03-06T00:21:07.435Z,88.2
2018-03-06T00:22:08.096Z,88.7
2018-03-06T00:23:08.755Z,88.7
2018-03-06T00:24:09.446Z,88.6
2018-03-06T00:25:10.106Z,88.7
2018-03-06T00:26:10.766Z,89.1
2018-03-06T00:27:11.426Z,89.2
2018-03-06T00:28:12.085Z,89.4
2018-03-06T00:29:12.745Z,89.3
2018-03-06T00:30:13.402Z,89.2
2018-03-06T00:31:14.061Z,89.1
2018-03-06T00:32:14.719Z,89.6
2018-03-06T00:33:15.376Z,89.5
2018-03-06T00:34:16.037Z,89.7
2018-03-06T00:35:16.695Z,89.9
2018-03-06T00:36:17.353Z,89.9
2018-03-06T00:37:18.012Z,89.9
2018-03-06T00:38:18.671Z,89.9
2018-03-06T00:39:19.329Z,89.7
2018-03-06T00:40:19.989Z,89.8
2018-03-06T00:41:20.648Z,89.6
2018-03-06T00:42:21.307Z,89.9
2018-03-06T00:43:21.964Z,89.8
2018-03-06T00:44:22.641Z,89.7
2018-03-06T00:45:23.281Z,89.8
2018-03-06T00:46:23.938Z,90.0
2018-03-06T00:47:24.596Z,90.1
2018-03-06T00:48:25.254Z,90.0
2018-03-06T00:49:25.912Z,90.1
2018-03-06T00:50:26.616Z,90.2
2018-03-06T00:51:27.232Z,89.9
2018-03-06T00:52:27.886Z,90.1
2018-03-06T00:53:28.547Z,90.5
2018-03-06T00:54:29.204Z,90.4
2018-03-06T00:55:29.864Z,90.3
2018-03-06T00:56:30.524Z,90.2
2018-03-06T00:57:31.334Z,90.3
2018-03-06T00:58:31.992Z,90.3
2018-03-06T00:59:32.650Z,90.5
2018-03-06T01:00:33.310Z,90.5
2018-03-06T01:01:33.965Z,90.5
2018-03-06T01:02:34.622Z,90.5
2018-03-06T01:03:35.280Z,89.9
2018-03-06T01:04:35.937Z,90.2
2018-03-06T01:05:36.596Z,90.3
2018-03-06T01:06:37.253Z,90.2
2018-03-06T01:07:37.910Z,90.2
2018-03-06T01:08:38.569Z,90.3
2018-03-06T01:09:39.229Z,90.2
2018-03-06T01:10:39.889Z,90.2
2018-03-06T01:11:40.551Z,90.3
2018-03-06T01:12:41.210Z,90.3
2018-03-06T01:13:41.908Z,90.3
2018-03-06T01:14:42.568Z,90.3
2018-03-06T01:15:43.225Z,90.3
2018-03-06T01:16:43.882Z,90.6
2018-03-06T01:17:44.540Z,91.2
2018-03-06T01:18:45.197Z,90.9
2018-03-06T01:19:45.855Z,91.4
2018-03-06T01:20:46.514Z,91.4
2018-03-06T01:21:47.211Z,91.1
2018-03-06T01:22:47.968Z,91.2
2018-03-06T01:23:48.622Z,91.0
2018-03-06T01:24:49.279Z,91.4
2018-03-06T01:25:49.938Z,91.3
2018-03-06T01:26:50.595Z,91.2
2018-03-06T01:27:51.253Z,91.0
2018-03-06T01:28:51.910Z,91.2
2018-03-06T01:29:52.569Z,91.2
2018-03-06T01:30:53.227Z,91.0
2018-03-06T01:31:53.883Z,90.8
2018-03-06T01:32:54.545Z,91.1
2018-03-06T01:33:55.198Z,91.2
2018-03-06T01:34:55.855Z,91.3
2018-03-06T01:35:56.513Z,91.0
2018-03-06T01:36:57.175Z,90.9
2018-03-06T01:37:57.869Z,91.1
2018-03-06T01:38:58.562Z,91.0
2018-03-06T01:39:59.220Z,91.1
2018-03-06T01:40:59.878Z,91.2
2018-03-06T01:42:00.536Z,91.2
2018-03-06T01:43:01.193Z,91.0
2018-03-06T01:44:01.851Z,90.7
2018-03-06T01:45:02.510Z,91.3
2018-03-06T01:46:03.168Z,91.2
2018-03-06T01:47:03.826Z,91.4
2018-03-06T01:48:04.499Z,91.2
2018-03-06T01:49:05.175Z,91.9
2018-03-06T01:50:05.832Z,91.5
2018-03-06T01:51:06.528Z,91.6
2018-03-06T01:52:07.186Z,91.8
2018-03-06T01:53:07.844Z,91.8
2018-03-06T01:54:08.501Z,91.4
2018-03-06T01:55:09.158Z,91.5
2018-03-06T01:56:09.816Z,91.4
2018-03-06T01:57:10.475Z,91.4
2018-03-06T01:58:11.132Z,91.2
2018-03-06T01:59:11.794Z,91.3
2018-03-06T02:00:12.447Z,90.9
2018-03-06T02:01:13.106Z,91.2
2018-03-06T02:02:13.768Z,91.2
2018-03-06T02:03:14.423Z,91.0
2018-03-06T02:04:15.082Z,91.4
2018-03-06T02:05:15.742Z,91.3
2018-03-06T02:06:16.402Z,91.2
2018-03-06T02:07:17.060Z,91.2
2018-03-06T02:08:17.722Z,91.1
2018-03-06T02:09:18.415Z,91.1
2018-03-06T02:10:19.102Z,90.6
2018-03-06T02:11:19.731Z,90.9
2018-03-06T02:12:20.388Z,90.5
2018-03-06T02:13:21.196Z,90.8
2018-03-06T02:14:21.853Z,90.4
2018-03-06T02:15:22.515Z,90.4
2018-03-06T02:16:23.207Z,90.8
2018-03-06T02:17:23.864Z,90.3
2018-03-06T02:18:24.522Z,90.4
2018-03-06T02:19:25.179Z,90.3
2018-03-06T02:20:25.838Z,90.6
2018-03-06T02:21:26.497Z,90.6
2018-03-06T02:22:27.154Z,90.2
2018-03-06T02:23:27.816Z,90.6
2018-03-06T02:24:28.475Z,90.8
2018-03-06T02:25:29.135Z,90.3
2018-03-06T02:26:29.794Z,90.3
2018-03-06T02:27:30.452Z,90.3
2018-03-06T02:28:31.109Z,90.5
2018-03-06T02:29:31.765Z,90.5
2018-03-06T02:30:32.423Z,90.4
2018-03-06T02:31:33.080Z,90.2
2018-03-06T02:32:33.738Z,90.4
2018-03-06T02:33:34.397Z,90.5
2018-03-06T02:34:35.055Z,90.6
2018-03-06T02:35:35.714Z,90.6
2018-03-06T02:36:36.374Z,90.3
2018-03-06T02:37:37.030Z,90.5
2018-03-06T02:38:37.691Z,90.3
2018-03-06T02:39:38.347Z,90.3
2018-03-06T02:40:39.005Z,90.2
2018-03-06T02:41:39.662Z,90.1
2018-03-06T02:42:40.319Z,90.0
2018-03-06T02:43:40.976Z,89.9
2018-03-06T02:44:41.635Z,89.6
2018-03-06T02:45:42.294Z,90.1
2018-03-06T02:46:42.952Z,89.9
2018-03-06T02:47:43.645Z,90.5
2018-03-06T02:48:44.353Z,90.3
2018-03-06T02:49:45.011Z,90.4
2018-03-06T02:50:45.669Z,90.0
2018-03-06T02:51:46.330Z,90.9
2018-03-06T02:52:46.988Z,90.7
2018-03-06T02:53:47.648Z,90.7
2018-03-06T02:54:48.307Z,90.2
2018-03-06T02:55:48.966Z,90.4
2018-03-06T02:56:49.623Z,90.6
2018-03-06T02:57:50.281Z,90.5
2018-03-06T02:58:50.977Z,90.6
2018-03-06T02:59:51.635Z,90.2
2018-03-06T03:00:52.292Z,90.7
2018-03-06T03:01:52.948Z,90.3
2018-03-06T03:02:53.605Z,90.5
2018-03-06T03:03:54.313Z,90.5
2018-03-06T03:04:54.971Z,90.6
2018-03-06T03:05:55.630Z,90.9
2018-03-06T03:06:56.289Z,91.0
2018-03-06T03:07:56.946Z,91.2
2018-03-06T03:08:57.604Z,90.9
2018-03-06T03:09:58.263Z,91.1
2018-03-06T03:10:58.918Z,90.7
2018-03-06T03:11:59.577Z,90.2
2018-03-06T03:13:00.233Z,90.4
2018-03-06T03:14:00.892Z,90.6
2018-03-06T03:15:01.550Z,90.6
2018-03-06T03:16:02.207Z,90.6
2018-03-06T03:17:02.864Z,90.7
2018-03-06T03:18:03.562Z,91.1
2018-03-06T03:19:04.368Z,91.2
2018-03-06T03:20:05.025Z,91.2
2018-03-06T03:21:05.683Z,91.2
2018-03-06T03:22:06.341Z,90.3
2018-03-06T03:23:07.001Z,90.5
2018-03-06T03:24:07.659Z,90.7
2018-03-06T03:25:08.317Z,90.5
2018-03-06T03:26:08.977Z,90.7
2018-03-06T03:27:09.634Z,90.5
2018-03-06T03:28:10.291Z,91.0
2018-03-06T03:29:10.948Z,91.1
2018-03-06T03:30:11.607Z,91.0
2018-03-06T03:31:12.264Z,91.0
2018-03-06T03:32:12.920Z,91.2
2018-03-06T03:33:13.578Z,91.1
2018-03-06T03:34:14.235Z,91.2
2018-03-06T03:35:14.893Z,91.6
2018-03-06T03:36:15.560Z,91.6
2018-03-06T03:37:16.210Z,91.7
2018-03-06T03:38:16.902Z,91.6
2018-03-06T03:39:17.558Z,91.7
2018-03-06T03:40:18.215Z,91.5
2018-03-06T03:41:18.872Z,91.2
2018-03-06T03:42:19.533Z,91.1
2018-03-06T03:43:20.190Z,91.2
2018-03-06T03:44:20.843Z,92.0
2018-03-06T03:45:21.499Z,92.1
2018-03-06T03:46:22.157Z,91.9
2018-03-06T03:47:22.851Z,91.7
2018-03-06T03:48:23.502Z,91.8
2018-03-06T03:49:24.159Z,91.8
2018-03-06T03:50:24.817Z,91.4
2018-03-06T03:51:25.475Z,91.8
2018-03-06T03:52:26.131Z,91.7
2018-03-06T03:53:26.788Z,91.7
2018-03-06T03:54:27.454Z,91.5
2018-03-06T03:55:28.133Z,91.7
2018-03-06T03:56:28.791Z,91.7
2018-03-06T03:57:29.450Z,92.0
2018-03-06T03:58:30.108Z,92.0
2018-03-06T03:59:30.765Z,92.0
2018-03-06T04:00:31.422Z,91.5
2018-03-06T04:01:32.079Z,91.6
2018-03-06T04:02:32.736Z,91.7
2018-03-06T04:03:33.393Z,91.9
2018-03-06T04:04:34.052Z,91.6
2018-03-06T04:05:34.710Z,91.8
2018-03-06T04:06:35.367Z,91.8
2018-03-06T04:07:36.024Z,91.9
2018-03-06T04:08:36.681Z,91.8
2018-03-06T04:09:37.338Z,92.1
2018-03-06T04:10:37.995Z,91.9
2018-03-06T04:11:38.689Z,91.9
2018-03-06T04:12:39.347Z,92.0
2018-03-06T04:13:40.004Z,92.1
2018-03-06T04:14:40.711Z,92.1
2018-03-06T04:15:41.370Z,91.5
2018-03-06T04:16:42.028Z,91.6
2018-03-06T04:17:42.687Z,91.6
2018-03-06T04:18:43.345Z,91.6
2018-03-06T04:19:44.003Z,92.0
2018-03-06T04:20:44.659Z,91.6
2018-03-06T04:21:45.317Z,91.5
2018-03-06T04:22:45.973Z,91.5
2018-03-06T04:23:46.632Z,91.4
2018-03-06T04:24:47.288Z,92.0
2018-03-06T04:25:47.945Z,91.8
2018-03-06T04:26:48.604Z,91.6
2018-03-06T04:27:49.261Z,91.8
2018-03-06T04:28:49.919Z,91.5
2018-03-06T04:29:50.576Z,91.6
2018-03-06T04:30:51.235Z,92.1
2018-03-06T04:31:51.894Z,92.1
2018-03-06T04:32:52.552Z,91.8
2018-03-06T04:33:53.240Z,91.8
2018-03-06T04:34:53.948Z,91.4
2018-03-06T04:35:54.606Z,91.7
2018-03-06T04:36:55.263Z,91.5
2018-03-06T04:37:55.920Z,91.6
2018-03-06T04:38:56.577Z,91.3
2018-03-06T04:39:57.233Z,91.9
2018-03-06T04:40:57.892Z,92.0
2018-03-06T04:41:58.549Z,92.0
2018-03-06T04:42:59.205Z,92.1
2018-03-06T04:43:59.866Z,91.9
2018-03-06T04:45:00.519Z,91.8
2018-03-06T04:46:01.176Z,91.9
2018-03-06T04:47:01.834Z,92.1
2018-03-06T04:48:02.489Z,91.9
2018-03-06T04:49:03.178Z,91.9
2018-03-06T04:50:03.834Z,91.9
2018-03-06T04:51:04.490Z,92.2
2018-03-06T04:52:05.148Z,91.9
2018-03-06T04:53:05.810Z,91.8
2018-03-06T04:54:06.463Z,91.7
2018-03-06T04:55:07.123Z,92.0
2018-03-06T04:56:07.780Z,91.9
2018-03-06T04:57:08.437Z,91.5
2018-03-06T04:58:09.095Z,91.8
2018-03-06T04:59:09.751Z,91.6
2018-03-06T05:00:10.410Z,92.0
2018-03-06T05:01:11.070Z,91.6
2018-03-06T05:02:11.768Z,91.7
2018-03-06T05:03:12.433Z,91.3
2018-03-06T05:04:13.125Z,91.9
2018-03-06T05:05:13.785Z,91.6
2018-03-06T05:06:14.443Z,91.9
2018-03-06T05:07:15.105Z,91.8
2018-03-06T05:08:15.759Z,91.2
2018-03-06T05:09:16.415Z,91.2
2018-03-06T05:10:17.071Z,91.2
2018-03-06T05:11:17.731Z,91.0
2018-03-06T05:12:18.425Z,91.1
2018-03-06T05:13:19.081Z,90.6
2018-03-06T05:14:19.739Z,91.1
2018-03-06T05:15:20.396Z,91.0
2018-03-06T05:16:21.053Z,91.0
2018-03-06T05:17:21.710Z,90.7
2018-03-06T05:18:22.368Z,90.7
2018-03-06T05:19:23.026Z,90.9
2018-03-06T05:20:23.684Z,90.6
2018-03-06T05:21:24.339Z,91.1
2018-03-06T05:22:24.998Z,91.2
2018-03-06T05:23:25.656Z,91.1
2018-03-06T05:24:26.315Z,91.1
2018-03-06T05:25:26.971Z,90.9
2018-03-06T05:26:27.626Z,91.1
2018-03-06T05:27:28.285Z,90.5
2018-03-06T05:28:28.943Z,90.7
2018-03-06T05:29:29.598Z,90.7
2018-03-06T05:30:30.254Z,90.7
2018-03-06T05:31:30.913Z,91.1
2018-03-06T05:32:31.572Z,90.6
2018-03-06T05:33:32.230Z,90.6
2018-03-06T05:34:32.888Z,90.4
2018-03-06T05:35:33.545Z,90.3
2018-03-06T05:36:34.207Z,90.1
2018-03-06T05:37:34.866Z,90.8
2018-03-06T05:38:35.526Z,90.2
2018-03-06T05:39:36.183Z,90.3
2018-03-06T05:40:36.841Z,90.4
2018-03-06T05:41:37.500Z,90.7
2018-03-06T05:42:38.158Z,90.4
2018-03-06T05:43:38.818Z,90.4
2018-03-06T05:44:39.477Z,90.3
2018-03-06T05:45:40.136Z,90.1
2018-03-06T05:46:40.794Z,90.3
2018-03-06T05:47:41.453Z,90.5
2018-03-06T05:48:42.110Z,90.7
2018-03-06T05:49:42.767Z,90.3
2018-03-06T05:50:43.426Z,90.1
2018-03-06T05:51:44.085Z,90.1
2018-03-06T05:52:44.748Z,90.4
2018-03-06T05:53:45.407Z,90.3
2018-03-06T05:54:46.066Z,90.6
2018-03-06T05:55:46.727Z,90.2
2018-03-06T05:56:47.386Z,90.5
2018-03-06T05:57:48.039Z,90.2
2018-03-06T05:58:48.697Z,90.3
2018-03-06T05:59:49.357Z,90.4
2018-03-06T06:00:50.016Z,90.2
2018-03-06T06:01:50.677Z,90.5
2018-03-06T06:02:51.337Z,90.1
2018-03-06T06:03:51.996Z,90.5
2018-03-06T06:04:52.657Z,90.5
2018-03-06T06:05:53.319Z,90.1
2018-03-06T06:06:53.982Z,90.7
2018-03-06T06:07:54.642Z,91.1
2018-03-06T06:08:55.301Z,90.4
2018-03-06T06:09:55.964Z,90.9
2018-03-06T06:10:56.625Z,90.0
2018-03-06T06:11:57.286Z,90.1
2018-03-06T06:12:57.947Z,90.5
2018-03-06T06:13:58.606Z,90.4
2018-03-06T06:14:59.268Z,90.9
2018-03-06T06:15:59.931Z,90.0
2018-03-06T06:17:00.591Z,90.5
2018-03-06T06:18:01.257Z,90.2
2018-03-06T06:19:01.916Z,90.4
2018-03-06T06:20:02.576Z,90.5
2018-03-06T06:21:03.236Z,90.3
2018-03-06T06:22:03.898Z,90.1
2018-03-06T06:23:04.563Z,90.3
2018-03-06T06:24:05.225Z,90.2
2018-03-06T06:25:05.887Z,90.3
2018-03-06T06:26:06.587Z,90.1
2018-03-06T06:27:07.249Z,90.0
2018-03-06T06:28:07.912Z,90.1
2018-03-06T06:29:08.577Z,89.7
2018-03-06T06:30:09.235Z,89.3
2018-03-06T06:31:09.900Z,89.3
2018-03-06T06:32:10.565Z,89.5
2018-03-06T06:33:11.225Z,89.4
2018-03-06T06:34:11.891Z,89.2
2018-03-06T06:35:12.550Z,88.9
2018-03-06T06:36:13.211Z,88.5
2018-03-06T06:37:13.873Z,88.6
2018-03-06T06:38:14.540Z,88.7
2018-03-06T06:39:15.225Z,88.6
2018-03-06T06:40:15.862Z,88.2
2018-03-06T06:41:16.525Z,88.2
2018-03-06T06:42:17.188Z,88.4
2018-03-06T06:43:17.850Z,87.8
2018-03-06T06:44:18.542Z,88.0
2018-03-06T06:45:19.204Z,88.0
2018-03-06T06:46:19.866Z,87.2
2018-03-06T06:47:20.529Z,87.3
2018-03-06T06:48:21.192Z,87.5
2018-03-06T06:49:21.856Z,87.1
2018-03-06T06:50:22.517Z,87.2
2018-03-06T06:51:23.181Z,86.9
2018-03-06T06:52:23.871Z,86.6
2018-03-06T06:53:24.505Z,86.5
2018-03-06T06:54:25.166Z,85.9
2018-03-06T06:55:25.831Z,86.0
2018-03-06T06:56:26.495Z,85.8
2018-03-06T06:57:27.157Z,85.2
2018-03-06T06:58:27.823Z,85.7
2018-03-06T06:59:28.485Z,85.2
2018-03-06T07:00:29.151Z,84.5
2018-03-06T07:01:29.814Z,84.8
2018-03-06T07:02:30.515Z,84.0
2018-03-06T07:03:31.177Z,84.0
2018-03-06T07:04:31.843Z,83.9
2018-03-06T07:05:32.506Z,83.7
2018-03-06T07:06:33.173Z,83.4
2018-03-06T07:07:33.836Z,83.9
2018-03-06T07:08:34.499Z,83.3
2018-03-06T07:09:35.162Z,83.1
2018-03-06T07:10:35.827Z,82.9
2018-03-06T07:11:36.528Z,82.8
2018-03-06T07:12:37.191Z,82.3
2018-03-06T07:13:37.856Z,83.0
2018-03-06T07:14:38.518Z,82.6
2018-03-06T07:15:39.183Z,82.6
2018-03-06T07:16:39.848Z,82.6
2018-03-06T07:17:40.514Z,82.3
2018-03-06T07:18:41.178Z,82.0
2018-03-06T07:19:41.843Z,81.7
2018-03-06T07:20:42.510Z,81.3
2018-03-06T07:21:43.173Z,81.1
2018-03-06T07:22:43.838Z,81.1
2018-03-06T07:23:44.556Z,81.4
2018-03-06T07:24:45.169Z,80.6
2018-03-06T07:25:45.836Z,80.5
2018-03-06T07:26:46.505Z,80.4
2018-03-06T07:27:47.164Z,79.9
2018-03-06T07:28:47.831Z,79.2
2018-03-06T07:29:48.497Z,79.5
2018-03-06T07:30:49.200Z,79.2
2018-03-06T07:31:49.877Z,79.3
2018-03-06T07:32:50.565Z,78.8
2018-03-06T07:33:51.229Z,78.7
2018-03-06T07:34:51.894Z,78.5
2018-03-06T07:35:52.558Z,78.1
2018-03-06T07:36:53.224Z,78.4
2018-03-06T07:37:53.892Z,79.0
2018-03-06T07:38:54.559Z,78.8
2018-03-06T07:39:55.225Z,78.9
2018-03-06T07:40:55.889Z,78.4
2018-03-06T07:41:56.554Z,78.3
2018-03-06T07:42:57.222Z,78.3
2018-03-06T07:43:57.928Z,78.1
2018-03-06T07:44:58.594Z,77.7
2018-03-06T07:45:59.260Z,77.5
2018-03-06T07:46:59.925Z,77.3
2018-03-06T07:48:00.591Z,76.9
2018-03-06T07:49:01.258Z,77.1
2018-03-06T07:50:01.927Z,76.7
2018-03-06T07:51:02.591Z,77.2
2018-03-06T07:52:03.257Z,76.2
2018-03-06T07:53:03.922Z,76.0
2018-03-06T07:54:04.642Z,76.0
2018-03-06T07:55:05.255Z,76.3
2018-03-06T07:56:05.926Z,76.8
2018-03-06T07:57:06.586Z,76.0
2018-03-06T07:58:07.254Z,75.9
2018-03-06T07:59:07.919Z,76.1
2018-03-06T08:00:08.586Z,76.3
2018-03-06T08:01:09.252Z,75.9
2018-03-06T08:02:09.920Z,75.8
2018-03-06T08:03:10.586Z,75.8
2018-03-06T08:04:11.253Z,76.1
2018-03-06T08:05:11.918Z,75.4
2018-03-06T08:06:12.584Z,75.5
2018-03-06T08:07:13.251Z,74.7
2018-03-06T08:08:13.920Z,75.0
2018-03-06T08:09:14.586Z,74.5
2018-03-06T08:10:15.252Z,74.2
2018-03-06T08:11:15.918Z,74.1
2018-03-06T08:12:16.585Z,74.2
2018-03-06T08:13:17.252Z,74.4
2018-03-06T08:14:17.920Z,74.3
2018-03-06T08:15:18.587Z,73.9
2018-03-06T08:16:19.254Z,73.9
2018-03-06T08:17:19.921Z,73.7
2018-03-06T08:18:20.587Z,73.9
2018-03-06T08:19:21.254Z,73.7
2018-03-06T08:20:21.922Z,74.1
2018-03-06T08:21:22.612Z,74.1
2018-03-06T08:22:23.292Z,74.1
2018-03-06T08:23:23.960Z,74.2
2018-03-06T08:24:24.666Z,74.5
2018-03-06T08:25:25.332Z,74.2
2018-03-06T08:26:25.998Z,74.2
2018-03-06T08:27:26.666Z,74.3
2018-03-06T08:28:27.332Z,74.1
2018-03-06T08:29:28.000Z,74.4
2018-03-06T08:30:28.670Z,74.3
2018-03-06T08:31:29.373Z,73.6
2018-03-06T08:32:30.040Z,73.6
2018-03-06T08:33:30.706Z,74.2
2018-03-06T08:34:31.374Z,73.4
2018-03-06T08:35:32.041Z,73.4
2018-03-06T08:36:32.708Z,73.6
2018-03-06T08:37:33.375Z,74.0
2018-03-06T08:38:34.043Z,73.2
2018-03-06T08:39:34.710Z,73.1
2018-03-06T08:40:35.379Z,73.6
2018-03-06T08:41:36.045Z,73.6
2018-03-06T08:42:36.713Z,73.5
2018-03-06T08:43:37.381Z,73.3
2018-03-06T08:44:38.049Z,73.3
2018-03-06T08:45:38.755Z,73.6
2018-03-06T08:46:39.426Z,74.2
2018-03-06T08:47:40.094Z,73.6
2018-03-06T08:48:40.799Z,73.8
2018-03-06T08:49:41.465Z,74.0
2018-03-06T08:50:42.134Z,73.9
2018-03-06T08:51:42.800Z,73.6
2018-03-06T08:52:43.571Z,74.0
2018-03-06T08:53:44.238Z,74.0
2018-03-06T08:54:44.906Z,74.2
2018-03-06T08:55:45.571Z,74.2
2018-03-06T08:56:46.241Z,74.4
2018-03-06T08:57:46.963Z,74.1
2018-03-06T08:58:47.613Z,74.1
2018-03-06T08:59:48.280Z,74.2
2018-03-06T09:00:48.948Z,74.7
2018-03-06T09:01:49.617Z,74.6
2018-03-06T09:02:50.281Z,74.8
2018-03-06T09:03:50.950Z,75.0
2018-03-06T09:04:51.617Z,74.6
2018-03-06T09:05:52.285Z,74.7
2018-03-06T09:06:52.951Z,74.8
2018-03-06T09:07:53.619Z,74.2
2018-03-06T09:08:54.274Z,74.0
2018-03-06T09:09:54.940Z,74.9
2018-03-06T09:10:55.609Z,74.3
2018-03-06T09:11:56.277Z,73.9
2018-03-06T09:12:56.945Z,74.2
2018-03-06T09:13:57.652Z,74.0
2018-03-06T09:14:58.317Z,74.0
2018-03-06T09:15:58.983Z,74.2
2018-03-06T09:16:59.709Z,74.2
2018-03-06T09:18:00.397Z,74.2
2018-03-06T09:19:01.066Z,74.2
2018-03-06T09:20:01.736Z,74.3
2018-03-06T09:21:02.437Z,73.8
2018-03-06T09:22:03.106Z,73.4
2018-03-06T09:23:03.810Z,73.3
2018-03-06T09:24:04.477Z,73.4
2018-03-06T09:25:05.145Z,72.9
2018-03-06T09:26:05.813Z,72.6
2018-03-06T09:27:06.482Z,72.4
2018-03-06T09:28:07.149Z,72.1
2018-03-06T09:29:07.818Z,72.3
2018-03-06T09:30:08.483Z,72.1
2018-03-06T09:31:09.156Z,71.7
2018-03-06T09:32:09.821Z,71.5
2018-03-06T09:33:10.540Z,71.5
2018-03-06T09:34:11.209Z,70.7
2018-03-06T09:35:11.876Z,70.7
2018-03-06T09:36:12.545Z,70.4
2018-03-06T09:37:13.215Z,70.2
2018-03-06T09:38:13.881Z,70.3
2018-03-06T09:39:14.549Z,70.6
2018-03-06T09:40:15.218Z,71.2
2018-03-06T09:41:15.885Z,71.2
2018-03-06T09:42:16.554Z,70.9
2018-03-06T09:43:17.280Z,71.0
2018-03-06T09:44:17.981Z,70.1
2018-03-06T09:45:18.678Z,69.8
2018-03-06T09:46:19.356Z,69.4
2018-03-06T09:47:20.025Z,69.1
2018-03-06T09:48:20.709Z,69.0
2018-03-06T09:49:21.363Z,69.0
2018-03-06T09:50:22.031Z,68.8
2018-03-06T09:51:22.700Z,68.6
2018-03-06T09:52:23.393Z,68.6
2018-03-06T09:53:24.034Z,68.3
2018-03-06T09:54:24.705Z,68.2
2018-03-06T09:55:25.379Z,68.8
2018-03-06T09:56:26.045Z,68.8
2018-03-06T09:57:26.713Z,68.5
2018-03-06T09:58:27.377Z,68.1
2018-03-06T09:59:28.047Z,68.2
2018-03-06T10:00:28.719Z,69.0
2018-03-06T10:01:29.383Z,68.8
2018-03-06T10:02:30.052Z,68.5
2018-03-06T10:03:30.720Z,68.3
2018-03-06T10:04:31.389Z,68.6
2018-03-06T10:05:32.057Z,68.5
2018-03-06T10:06:32.723Z,68.2
2018-03-06T10:07:33.395Z,68.2
2018-03-06T10:08:34.063Z,67.8
2018-03-06T10:09:34.731Z,67.6
2018-03-06T10:10:35.402Z,67.4
2018-03-06T10:11:36.069Z,67.9
2018-03-06T10:12:36.739Z,67.3
2018-03-06T10:13:37.411Z,66.9
2018-03-06T10:14:38.078Z,66.9
2018-03-06T10:15:38.745Z,67.1
2018-03-06T10:16:39.414Z,66.9
2018-03-06T10:17:40.120Z,66.7
2018-03-06T10:18:40.787Z,66.1
2018-03-06T10:19:41.457Z,66.2
2018-03-06T10:20:42.128Z,66.5
2018-03-06T10:21:42.795Z,66.3
2018-03-06T10:22:43.465Z,66.0
2018-03-06T10:23:44.171Z,65.8
2018-03-06T10:24:44.879Z,65.7
2018-03-06T10:25:45.546Z,65.9
2018-03-06T10:26:46.214Z,65.9
2018-03-06T10:27:46.883Z,66.1
2018-03-06T10:28:47.554Z,66.1
2018-03-06T10:29:48.223Z,66.8
2018-03-06T10:30:48.893Z,66.5
2018-03-06T10:31:49.562Z,66.1
2018-03-06T10:32:50.230Z,65.6
2018-03-06T10:33:50.901Z,65.4
2018-03-06T10:34:51.609Z,65.4
2018-03-06T10:35:52.277Z,65.6
2018-03-06T10:36:52.947Z,65.5
2018-03-06T10:37:53.615Z,65.9
2018-03-06T10:38:54.284Z,65.2
2018-03-06T10:39:54.953Z,64.9
2018-03-06T10:40:55.627Z,64.8
2018-03-06T10:41:56.291Z,65.0
2018-03-06T10:42:56.968Z,65.0
2018-03-06T10:43:57.670Z,64.8
2018-03-06T10:44:58.337Z,65.1
2018-03-06T10:45:59.007Z,65.4
2018-03-06T10:46:59.677Z,64.9
2018-03-06T10:48:00.346Z,65.0
2018-03-06T10:49:01.015Z,65.6
2018-03-06T10:50:01.690Z,65.9
2018-03-06T10:51:02.355Z,65.7
2018-03-06T10:52:03.024Z,65.6
2018-03-06T10:53:03.694Z,65.6
2018-03-06T10:54:04.365Z,65.3
2018-03-06T10:55:05.043Z,65.1
2018-03-06T10:56:05.706Z,65.0
2018-03-06T10:57:06.375Z,64.9
2018-03-06T10:58:07.042Z,64.8
2018-03-06T10:59:07.713Z,65.0
2018-03-06T11:00:08.381Z,64.7
2018-03-06T11:01:09.071Z,64.4
2018-03-06T11:02:09.746Z,64.5
2018-03-06T11:03:10.390Z,64.7
2018-03-06T11:04:11.063Z,64.8
2018-03-06T11:05:11.732Z,65.1
2018-03-06T11:06:12.440Z,65.3
2018-03-06T11:07:13.109Z,65.3
2018-03-06T11:08:13.796Z,65.3
2018-03-06T11:09:14.448Z,65.4
2018-03-06T11:10:15.115Z,65.6
2018-03-06T11:11:15.786Z,65.8
2018-03-06T11:12:16.458Z,65.6
2018-03-06T11:13:17.141Z,64.7
2018-03-06T11:14:17.818Z,64.4
2018-03-06T11:15:18.505Z,64.2
2018-03-06T11:16:19.172Z,64.4
2018-03-06T11:17:19.843Z,64.6
2018-03-06T11:18:20.513Z,64.4
2018-03-06T11:19:21.182Z,64.4
2018-03-06T11:20:21.854Z,64.5
2018-03-06T11:21:22.524Z,64.2
2018-03-06T11:22:23.195Z,64.0
2018-03-06T11:23:23.863Z,64.6
2018-03-06T11:24:24.533Z,64.4
2018-03-06T11:25:25.210Z,64.4
2018-03-06T11:26:25.911Z,64.2
2018-03-06T11:27:26.579Z,64.0
2018-03-06T11:28:27.248Z,64.4
2018-03-06T11:29:27.917Z,64.3
2018-03-06T11:30:28.589Z,64.2
2018-03-06T11:31:29.262Z,63.8
2018-03-06T11:32:29.972Z,63.7
2018-03-06T11:33:30.641Z,64.3
2018-03-06T11:34:31.309Z,64.7
2018-03-06T11:35:31.980Z,64.2
2018-03-06T11:36:32.651Z,64.0
2018-03-06T11:37:33.321Z,63.4
2018-03-06T11:38:34.007Z,63.2
2018-03-06T11:39:34.671Z,63.3
2018-03-06T11:40:35.330Z,63.4
2018-03-06T11:41:36.000Z,63.2
2018-03-06T11:42:36.673Z,63.4
2018-03-06T11:43:37.342Z,62.8
2018-03-06T11:44:38.011Z,62.6
2018-03-06T11:45:38.681Z,62.8
2018-03-06T11:46:39.351Z,63.2
2018-03-06T11:47:40.022Z,63.3
2018-03-06T11:48:40.691Z,63.2
2018-03-06T11:49:41.360Z,63.4
2018-03-06T11:50:42.032Z,63.4
2018-03-06T11:51:42.701Z,63.7
2018-03-06T11:52:43.371Z,63.4
2018-03-06T11:53:44.045Z,62.8
2018-03-06T11:54:44.712Z,62.8
2018-03-06T11:55:45.381Z,62.9
2018-03-06T11:56:46.052Z,62.8
2018-03-06T11:57:46.720Z,63.3
2018-03-06T11:58:47.391Z,62.7
2018-03-06T11:59:48.062Z,62.5
2018-03-06T12:00:48.735Z,62.6
2018-03-06T12:01:49.407Z,62.5
2018-03-06T12:02:50.076Z,62.1
2018-03-06T12:03:50.745Z,62.2
2018-03-06T12:04:51.415Z,62.1
2018-03-06T12:05:52.087Z,62.1
2018-03-06T12:06:52.756Z,62.1
2018-03-06T12:07:53.427Z,61.7
2018-03-06T12:08:54.096Z,61.9
2018-03-06T12:09:54.960Z,62.1
2018-03-06T12:10:55.632Z,61.5
2018-03-06T12:11:56.302Z,61.5
2018-03-06T12:12:56.972Z,61.1
2018-03-06T12:13:57.646Z,60.6
2018-03-06T12:14:58.317Z,60.9
2018-03-06T12:15:58.987Z,61.2
2018-03-06T12:16:59.661Z,61.0
2018-03-06T12:18:00.330Z,61.4
2018-03-06T12:19:01.003Z,61.2
2018-03-06T12:20:01.677Z,60.8
2018-03-06T12:21:02.344Z,60.5
2018-03-06T12:22:03.056Z,60.7
2018-03-06T12:23:03.726Z,60.7
2018-03-06T12:24:04.400Z,60.4
2018-03-06T12:25:05.070Z,61.1
2018-03-06T12:26:05.741Z,61.2
2018-03-06T12:27:06.413Z,60.8
2018-03-06T12:28:07.083Z,60.7
2018-03-06T12:29:07.756Z,60.6
2018-03-06T12:30:08.477Z,60.8
2018-03-06T12:31:09.099Z,60.7
2018-03-06T12:32:09.771Z,60.7
2018-03-06T12:33:10.447Z,60.9
2018-03-06T12:34:11.114Z,60.7
2018-03-06T12:35:11.787Z,60.8
2018-03-06T12:36:12.463Z,60.9
2018-03-06T12:37:13.136Z,60.6
2018-03-06T12:38:13.812Z,60.6
2018-03-06T12:39:14.513Z,60.6
2018-03-06T12:40:15.185Z,60.9
2018-03-06T12:41:15.856Z,61.0
2018-03-06T12:42:16.526Z,61.0
2018-03-06T12:43:17.207Z,61.4
2018-03-06T12:44:17.867Z,61.0
2018-03-06T12:45:18.536Z,60.7
2018-03-06T12:46:19.207Z,60.8
2018-03-06T12:47:19.877Z,61.4
2018-03-06T12:48:20.547Z,61.5
2018-03-06T12:49:21.226Z,61.2
2018-03-06T12:50:21.887Z,60.7
2018-03-06T12:51:22.558Z,61.3
2018-03-06T12:52:23.230Z,61.5
2018-03-06T12:53:23.902Z,61.0
2018-03-06T12:54:24.572Z,61.5
2018-03-06T12:55:25.241Z,61.4
2018-03-06T12:56:25.912Z,61.3
2018-03-06T12:57:26.581Z,61.6
2018-03-06T12:58:27.252Z,61.3
2018-03-06T12:59:27.921Z,61.3
2018-03-06T13:00:28.591Z,61.6
2018-03-06T13:01:29.262Z,61.6
2018-03-06T13:02:29.931Z,61.9
2018-03-06T13:03:30.600Z,61.8
2018-03-06T13:04:31.271Z,62.0
2018-03-06T13:05:31.942Z,62.0
2018-03-06T13:06:32.612Z,61.6
2018-03-06T13:07:33.318Z,61.3
2018-03-06T13:08:33.990Z,61.3
2018-03-06T13:09:34.658Z,61.2
2018-03-06T13:10:35.327Z,60.8
2018-03-06T13:11:35.999Z,60.7
2018-03-06T13:12:36.716Z,61.4
2018-03-06T13:13:37.339Z,61.1
2018-03-06T13:14:38.053Z,60.9
2018-03-06T13:15:38.718Z,61.2
2018-03-06T13:16:39.389Z,61.2
2018-03-06T13:17:40.098Z,61.3
2018-03-06T13:18:40.771Z,61.3
2018-03-06T13:19:41.440Z,61.2
2018-03-06T13:20:42.112Z,61.6
2018-03-06T13:21:42.781Z,61.5
2018-03-06T13:22:43.450Z,62.0
2018-03-06T13:23:44.123Z,62.1
2018-03-06T13:24:44.793Z,61.7
2018-03-06T13:25:45.462Z,62.1
2018-03-06T13:26:46.133Z,62.0
2018-03-06T13:27:46.802Z,62.0